ADDS METAR Data INFO
IDs: Format: Raw Decoded Include TAF

Data at: 1140 UTC 17 Jul 2018

KBOS 171054Z 22013KT 7SM FEW070 FEW180 SCT250 25/22 A2986 RMK AO2 SLP110 T02500217
KBOS 170954Z 21009KT 6SM BR FEW010 FEW100 BKN180 23/21 A2986 RMK AO2 SLP112 T02330211
KBOS 170854Z 21010KT 8SM FEW100 FEW180 23/21 A2986 RMK AO2 SLP112 T02330211 57011
KBOS 170654Z 20006KT 7SM SCT100 BKN200 23/21 A2989 RMK AO2 SLP120 T02330211
KBOS 170454Z 19007KT 7SM SCT010 BKN200 24/21 A2991 RMK AO2 SLP128 T02390211 402500194
KBOS 170354Z 19007KT 7SM SCT120 SCT250 24/22 A2993 RMK AO2 SLP133 T02390217
KBOS 170254Z 20009KT 9SM FEW050 SCT120 SCT250 24/21 A2993 RMK AO2 SLP134 T02440211 50001
KBOS 170154Z 16003KT 10SM FEW050 SCT120 SCT250 22/19 A2994 RMK AO2 SLP137 T02170194
KBOS 170054Z 08004KT 10SM FEW055 SCT120 BKN220 22/19 A2992 RMK AO2 SLP132 T02170194
KBOS 162354Z 08005KT 9SM FEW002 SCT065 BKN220 22/19 A2993 RMK AO2 LTG DSNT W SLP133 MDT CU W T02170194 10222 20211 56007
KBOS 162254Z 06006KT 8SM FEW002 FEW065 BKN220 22/19 A2993 RMK AO2 SLP135 T02220194
KBOS 162154Z 07008KT 7SM BCFG SCT002 SCT065 BKN220 22/19 A2994 RMK AO2 SLP137 VIS N-E 1 T02220194
KBOS 162054Z 07008KT 6SM BCFG SCT003 SCT011 SCT070 BKN220 22/19 A2995 RMK AO2 SLP140 VIS NE-S 3/4 T02170194 58011
KBOS 161954Z 09008KT 6SM BCFG FEW004 SCT008 SCT050 BKN250 22/19 A2996 RMK AO2 LTG DSNT S SLP146 VIS NE-S 1 MDT CU SE T02170194
KBOS 161912Z 08010KT 6SM BCFG FEW004 SCT008 SCT050 BKN250 22/19 A2996 RMK AO2 LTG DSNT S VIS E-S 1 MDT CU S T02170194
KBOS 161854Z 08008KT 1/2SM R04R/P6000FT BCFG FEW002 SCT008 SCT050 BKN250 22/19 A2997 RMK AO2 SFC VIS 2 1/2 SLP148 VIS NE-S 1/2 T02220194
KBOS 161754Z 08010KT 3SM BR SCT002 SCT008 SCT050 BKN250 22/19 A2998 RMK AO2 SFC VIS 4 SLP151 VIS E-SE 1 T02170194 10228 20211 58010
KBOS 161654Z 08010KT 3SM BR SCT004 SCT055 BKN250 22/19 A2999 RMK AO2 SFC VIS 6 SLP155 VIS E-SE 1 T02220194
KBOS 161629Z 08009KT 3SM BR SCT004 BKN075 BKN250 22/19 A3000 RMK AO2 SFC VIS 6 T02220194
KBOS 161622Z 08009KT 3SM BR SCT004 BKN075 BKN250 22/19 A3000 RMK AO2 SFC VIS 6 T02220194
KBOS 161554Z 09008KT 1 1/2SM BR FEW006 SCT075 BKN250 22/19 A3001 RMK AO2 SFC VIS 5 SLP160 VIS E-S 1 T02220194
KBOS 161539Z 08009KT 1 1/2SM BR SCT007 SCT070 BKN250 22/19 A3000 RMK AO2 SFC VIS 6 VIS E-S 1 T02220194
KBOS 161504Z 11007KT 1 1/2SM R04R/3000VP6000FT BR BKN006 BKN010 22/19 A3001 RMK AO2 SFC VIS 4 VIS NE-S 1 T02220194
KBOS 161454Z 12007KT 1 1/2SM R04R/2600VP6000FT BR BKN004 23/19 A3001 RMK AO2 SLP162 VIS NW 4 T02280194 51004
KBOS 161417Z 10007KT 1 1/2SM R04R/4500VP6000FT BR BKN004 22/19 A3001 RMK AO2 SFC VIS 4 VIS E-S 1 T02170194
KBOS 161401Z 09008KT 1 1/2SM BR BKN006 22/19 A3001 RMK AO2 SFC VIS 3 CIG 002 E T02170194
KBOS 161354Z 08007KT 1 1/2SM BR SCT007 SCT250 22/19 A3000 RMK AO2 SFC VIS 4 SLP160 VIS E-S 1 3/4 T02220194
KBOS 161254Z VRB04KT 1 1/2SM BR BKN007 22/19 A3001 RMK AO2 SFC VIS 3 CIG 003 E SLP160 VIS E-S 1 1/2 T02220194
KBOS 161232Z 02005KT 1 1/2SM BR OVC006 22/19 A3000 RMK AO2 SFC VIS 3 CIG 002 E T02170194
KBOS 161154Z 02004KT 1 1/2SM BR OVC002 21/19 A3000 RMK AO2 SLP158 VIS SW-W 3 T02110194 10211 20194 53007
KBOS 161134Z 36004KT 1SM R04R/P6000FT BR BKN002 21/19 A3000 RMK AO2 TWR VIS 1 1/2 VIS W 3 T02060194
KBOS 161102Z 02006KT 1 1/2SM R04R/1000VP6000FT BR FEW002 21/19 A2999 RMK AO2 VIS E-S 1/2 T02060194
KBOS 161054Z 02005KT 1 1/2SM R04R/1000V1600FT BR FEW003 21/19 A2999 RMK AO2 SLP153 T02060194
KBOS 161042Z 03004KT 1 1/2SM R04R/1200V5500FT BR FEW003 21/19 A2999 RMK AO2 SFC VIS 2 T02060194
KBOS 161021Z 00000KT 1/4SM R04R/P6000FT BR SCT003 21/19 A2998 RMK AO2 SFC VIS 1 1/4 T02060194
KBOS 160954Z 00000KT 1/4SM R04R/1200V3500FT FG VV002 20/19 A2998 RMK AO2 SLP153 T02000194
KBOS 160943Z COR 00000KT 1/4SM R04R/1000V2400FT FG VV002 20/19 A2998 RMK AO2 TWR VIS 1/4 T02000194
KBOS 160935Z 03004KT M1/4SM R04R/1000V1400FT FG VV002 20/19 A2998 RMK AO2 TWR VIS 1/4 T02000194
KBOS 160854Z 00000KT 1/4SM R04R/1000V1400FT FG VV002 20/19 A2998 RMK AO2 TWR VIS 1/4 SLP150 T02000194 53001
KBOS 160846Z 02003KT 1/4SM R04R/1000V2000FT FG VV002 20/19 A2997 RMK AO2 TWR VIS 1/4 T02000194
KBOS 160820Z 02003KT M1/4SM R04R/1200V1600FT FG VV002 20/19 A2997 RMK AO2 TWR VIS 1 T02000189
KBOS 160801Z 04005KT 1/4SM R04R/1400V2000FT FG VV002 20/19 A2997 RMK AO2 TWR VIS 1 T02000194
KBOS 160754Z 03005KT 1/4SM R04R/1400V2600FT FG VV002 20/19 A2997 RMK AO2 TWR VIS 1 SLP148 T02000194
KBOS 160751Z 03005KT 1/4SM R04R/1600V2600FT FG VV002 20/19 A2997 RMK AO2 TWR VIS 1
KBOS 160654Z 03003KT 1/4SM R04R/2400V4500FT FG VV002 20/19 A2998 RMK AO2 TWR VIS 1 SLP150 T02000194
KBOS 160642Z 03004KT 1/4SM R04R/4500VP6000FT FG OVC002 20/19 A2998 RMK AO2 TWR VIS 1 T02000194
KBOS 160621Z 03004KT 1SM R04R/5500VP6000FT BR BKN002 21/19 A2998 RMK AO2 SFC VIS 1 3/4 T02060194
KBOS 160614Z 01007KT 1SM R04R/5500VP6000FT BR SCT003 SCT006 21/19 A2998 RMK AO2 SFC VIS 2 T02060194
KBOS 160554Z 02005KT 6SM BR FEW007 21/19 A2998 RMK AO2 SLP151 T02060189 10217 20206 51004
KBOS 160500Z 00000KT 8SM FEW007 21/19 A2998 RMK AO2 T02060189
KBOS 160454Z 00000KT 8SM CLR 21/19 A2997 RMK AO2 SLP149 T02060189 402610194
KBOS 160354Z 02004KT 10SM FEW030 FEW130 SCT220 21/19 A2997 RMK AO2 SLP149 T02110189
KBOS 160254Z 06006KT 10SM FEW030 FEW130 SCT220 21/19 A2997 RMK AO2 SLP147 T02060189 50006
KBOS 160054Z COR 08005KT 10SM SCT150 21/19 A2996 RMK AO2 SLP145 FRQ LTGIC DSNT W CB DSNT W T02110189
KBOS 152354Z 08007KT 10SM FEW120 SCT220 SCT250 22/18 A2995 RMK AO2 SLP141 TCU DSNT W CB DSNT W-NW T02170183 10250 20217 53002